createdAt,value
2023-05-10T00:07:39.341Z,1.43
2023-05-10T00:17:41.373Z,2.13
2023-05-10T00:27:43.421Z,2.60
2023-05-10T00:37:46.844Z,3.13
2023-05-10T00:47:49.082Z,5.63
2023-05-10T00:57:51.288Z,5.35
2023-05-10T01:07:53.605Z,5.90
2023-05-10T01:17:56.867Z,6.07
2023-05-10T01:28:18.782Z,7.10
2023-05-10T01:38:47.123Z,9.23
2023-05-10T01:48:53.221Z,8.57
2023-05-10T01:58:57.131Z,7.10
2023-05-10T02:09:01.546Z,4.70
2023-05-10T02:19:04.200Z,4.13
2023-05-10T02:29:07.614Z,1.97
2023-05-10T02:39:13.556Z,2.63
2023-05-10T02:49:16.254Z,1.23
2023-05-10T02:59:18.281Z,3.42
2023-05-10T03:09:20.800Z,3.20
2023-05-10T03:19:29.140Z,1.60
2023-05-10T03:29:32.309Z,2.40
2023-05-10T03:39:34.636Z,4.78
2023-05-10T03:49:38.050Z,10.77
2023-05-10T03:59:40.313Z,13.43
2023-05-10T04:09:42.444Z,14.40
2023-05-10T04:19:44.621Z,14.98
2023-05-10T04:29:46.717Z,13.32
2023-05-10T04:39:48.737Z,9.53
2023-05-10T04:49:51.214Z,16.88
2023-05-10T04:59:54.290Z,21.40
2023-05-10T05:09:56.656Z,26.37
2023-05-10T05:19:58.687Z,32.90
2023-05-10T05:30:00.821Z,28.25
2023-05-10T05:40:02.916Z,32.95
2023-05-10T05:50:05.761Z,36.67
2023-05-10T06:00:08.391Z,35.67
2023-05-10T06:10:16.274Z,37.07
2023-05-10T06:20:18.395Z,39.35
2023-05-10T06:30:21.085Z,36.28
2023-05-10T06:40:23.171Z,39.40
2023-05-10T06:50:25.265Z,38.88
2023-05-10T07:00:28.069Z,36.10
2023-05-10T07:10:30.789Z,36.35
2023-05-10T07:20:33.403Z,33.63
2023-05-10T07:30:35.722Z,29.58
2023-05-10T07:40:38.070Z,31.55
2023-05-10T07:50:40.089Z,30.80
2023-05-10T08:00:42.150Z,28.08
2023-05-10T08:10:44.315Z,33.25
2023-05-10T08:20:46.403Z,32.00
2023-05-10T08:30:48.506Z,34.95
2023-05-10T08:40:51.754Z,37.50
2023-05-10T08:50:58.336Z,33.90
2023-05-10T09:01:00.680Z,31.95
2023-05-10T09:11:03.813Z,34.78
2023-05-10T09:21:06.555Z,32.53
2023-05-10T09:31:08.674Z,27.15
2023-05-10T09:41:21.333Z,22.02
2023-05-10T09:51:25.247Z,16.70
2023-05-10T10:01:27.444Z,15.23
2023-05-10T10:11:29.850Z,13.35
2023-05-10T10:21:32.550Z,13.73
2023-05-10T10:31:57.060Z,11.55
2023-05-10T10:41:59.965Z,12.93
2023-05-10T10:52:15.636Z,10.48
2023-05-10T11:02:46.856Z,19.60
2023-05-10T11:13:11.160Z,16.35
2023-05-10T11:23:16.497Z,14.98
2023-05-10T11:33:20.582Z,13.27
2023-05-10T11:43:24.643Z,19.23
2023-05-10T11:53:28.096Z,18.25
2023-05-10T12:03:30.753Z,18.55
2023-05-10T12:13:32.897Z,13.57
2023-05-10T12:23:34.938Z,15.25
2023-05-10T12:33:39.765Z,11.57
2023-05-10T12:43:42.192Z,10.85
2023-05-10T12:53:49.765Z,9.77
2023-05-10T13:03:52.400Z,10.15
2023-05-10T13:13:56.531Z,11.63
2023-05-10T13:23:58.965Z,11.90
2023-05-10T13:34:01.153Z,13.35
2023-05-10T13:44:03.355Z,14.00
2023-05-10T13:54:05.980Z,9.40
2023-05-10T14:04:11.188Z,8.93
2023-05-10T14:14:14.248Z,5.18
2023-05-10T14:24:16.334Z,4.88
2023-05-10T14:34:18.604Z,5.80
2023-05-10T14:44:20.980Z,4.20
2023-05-10T14:54:22.999Z,5.88
2023-05-10T15:04:27.088Z,3.35
2023-05-10T15:14:31.460Z,2.90
2023-05-10T15:24:33.545Z,4.63
2023-05-10T15:34:37.156Z,3.00
2023-05-10T15:44:39.833Z,4.20
2023-05-10T15:54:42.098Z,3.95
2023-05-10T16:04:44.591Z,3.22
2023-05-10T16:14:48.002Z,4.45
2023-05-10T16:24:53.496Z,5.18
2023-05-10T16:34:55.571Z,7.10
2023-05-10T16:44:57.843Z,7.55
2023-05-10T16:54:59.906Z,7.45
2023-05-10T17:05:01.984Z,8.48
2023-05-10T17:15:05.062Z,8.27
2023-05-10T17:25:07.678Z,11.05
2023-05-10T17:35:10.239Z,10.77
2023-05-10T17:45:15.619Z,14.20
2023-05-10T17:55:18.241Z,16.67
2023-05-10T18:05:21.399Z,18.05
2023-05-10T18:15:24.598Z,18.05
2023-05-10T18:25:26.803Z,20.98
2023-05-10T18:35:28.884Z,20.08
2023-05-10T18:45:31.026Z,20.55
2023-05-10T18:55:33.345Z,22.17
2023-05-10T19:05:35.472Z,19.83
2023-05-10T19:15:39.809Z,19.77
2023-05-10T19:25:42.949Z,24.13
2023-05-10T19:35:45.510Z,21.10
2023-05-10T19:45:47.561Z,17.52
2023-05-10T19:55:49.696Z,17.95
2023-05-10T20:05:52.099Z,12.88
2023-05-10T20:15:58.100Z,12.53
2023-05-10T20:26:00.166Z,10.83
2023-05-10T20:36:02.200Z,10.95
2023-05-10T20:46:05.437Z,11.20
2023-05-10T20:56:07.721Z,11.98
2023-05-10T21:06:09.772Z,11.82
2023-05-10T21:16:12.157Z,14.73
2023-05-10T21:26:14.491Z,14.77
2023-05-10T21:36:16.626Z,16.23
2023-05-10T21:46:19.439Z,20.23
2023-05-10T21:56:21.643Z,20.08
2023-05-10T22:06:23.730Z,24.27
2023-05-10T22:16:25.825Z,22.95
2023-05-10T22:26:27.916Z,23.83
2023-05-10T22:36:30.632Z,26.25
2023-05-10T22:46:32.946Z,22.83
2023-05-10T22:56:35.050Z,24.27
2023-05-10T23:06:37.175Z,21.67
2023-05-10T23:16:39.301Z,22.47
2023-05-10T23:26:43.398Z,23.07
2023-05-10T23:36:45.407Z,25.77
2023-05-10T23:46:47.426Z,23.60
2023-05-10T23:56:51.399Z,25.58
